sensor_id;sensor_type;location;lat;lon;timestamp;P1;durP1;ratioP1;P2;durP2;ratioP2
64832;SDS011;51290;45.060;38.948;2023-10-19T00:00:39;15.45;;;11.02;;
64832;SDS011;51290;45.060;38.948;2023-10-19T00:03:06;17.13;;;11.50;;
64832;SDS011;51290;45.060;38.948;2023-10-19T00:05:32;16.42;;;11.73;;
64832;SDS011;51290;45.060;38.948;2023-10-19T00:07:59;20.38;;;11.70;;
64832;SDS011;51290;45.060;38.948;2023-10-19T00:10:30;16.85;;;11.82;;
64832;SDS011;51290;45.060;38.948;2023-10-19T00:13:03;15.57;;;11.38;;
64832;SDS011;51290;45.060;38.948;2023-10-19T00:15:31;14.50;;;10.90;;
64832;SDS011;51290;45.060;38.948;2023-10-19T00:18:00;15.88;;;9.55;;
64832;SDS011;51290;45.060;38.948;2023-10-19T00:20:41;17.80;;;12.38;;
64832;SDS011;51290;45.060;38.948;2023-10-19T00:23:10;13.05;;;10.75;;
64832;SDS011;51290;45.060;38.948;2023-10-19T00:25:44;16.92;;;11.93;;
64832;SDS011;51290;45.060;38.948;2023-10-19T00:28:19;13.85;;;10.75;;
64832;SDS011;51290;45.060;38.948;2023-10-19T00:30:45;20.00;;;12.20;;
64832;SDS011;51290;45.060;38.948;2023-10-19T00:33:19;20.45;;;13.50;;
64832;SDS011;51290;45.060;38.948;2023-10-19T00:35:54;20.17;;;11.45;;
64832;SDS011;51290;45.060;38.948;2023-10-19T00:38:33;16.20;;;13.15;;
64832;SDS011;51290;45.060;38.948;2023-10-19T00:41:03;17.65;;;12.15;;
64832;SDS011;51290;45.060;38.948;2023-10-19T00:43:30;32.90;;;12.90;;
64832;SDS011;51290;45.060;38.948;2023-10-19T00:46:09;16.70;;;12.05;;
64832;SDS011;51290;45.060;38.948;2023-10-19T00:48:54;17.60;;;12.52;;
64832;SDS011;51290;45.060;38.948;2023-10-19T00:51:28;23.73;;;12.63;;
64832;SDS011;51290;45.060;38.948;2023-10-19T00:54:06;17.17;;;11.57;;
64832;SDS011;51290;45.060;38.948;2023-10-19T00:56:44;19.77;;;13.20;;
64832;SDS011;51290;45.060;38.948;2023-10-19T00:59:15;16.88;;;11.93;;
64832;SDS011;51290;45.060;38.948;2023-10-19T01:01:50;16.17;;;11.70;;
64832;SDS011;51290;45.060;38.948;2023-10-19T01:04:20;14.35;;;10.75;;
64832;SDS011;51290;45.060;38.948;2023-10-19T01:06:48;16.65;;;12.43;;
64832;SDS011;51290;45.060;38.948;2023-10-19T01:09:30;15.10;;;10.10;;
64832;SDS011;51290;45.060;38.948;2023-10-19T01:12:01;15.38;;;12.20;;
64832;SDS011;51290;45.060;38.948;2023-10-19T01:15:00;15.77;;;11.45;;
64832;SDS011;51290;45.060;38.948;2023-10-19T01:20:06;14.32;;;10.50;;
64832;SDS011;51290;45.060;38.948;2023-10-19T01:22:55;15.45;;;11.98;;
64832;SDS011;51290;45.060;38.948;2023-10-19T01:25:50;15.40;;;11.55;;
64832;SDS011;51290;45.060;38.948;2023-10-19T01:28:27;18.42;;;12.25;;
64832;SDS011;51290;45.060;38.948;2023-10-19T01:31:06;22.60;;;12.40;;
64832;SDS011;51290;45.060;38.948;2023-10-19T01:33:33;19.42;;;13.32;;
64832;SDS011;51290;45.060;38.948;2023-10-19T01:36:00;17.23;;;12.20;;
64832;SDS011;51290;45.060;38.948;2023-10-19T01:38:44;20.75;;;13.07;;
64832;SDS011;51290;45.060;38.948;2023-10-19T01:41:12;16.95;;;13.05;;
64832;SDS011;51290;45.060;38.948;2023-10-19T01:43:40;18.80;;;12.55;;
64832;SDS011;51290;45.060;38.948;2023-10-19T01:46:09;16.80;;;12.45;;
64832;SDS011;51290;45.060;38.948;2023-10-19T01:48:41;15.77;;;12.63;;
64832;SDS011;51290;45.060;38.948;2023-10-19T01:51:11;16.83;;;12.52;;
64832;SDS011;51290;45.060;38.948;2023-10-19T01:53:40;17.92;;;13.50;;
64832;SDS011;51290;45.060;38.948;2023-10-19T01:56:13;20.00;;;13.07;;
64832;SDS011;51290;45.060;38.948;2023-10-19T01:58:41;18.83;;;12.88;;
64832;SDS011;51290;45.060;38.948;2023-10-19T02:01:09;18.80;;;13.20;;
64832;SDS011;51290;45.060;38.948;2023-10-19T02:03:38;16.80;;;13.65;;
64832;SDS011;51290;45.060;38.948;2023-10-19T02:06:08;17.30;;;12.57;;
64832;SDS011;51290;45.060;38.948;2023-10-19T02:08:58;16.40;;;13.52;;
64832;SDS011;51290;45.060;38.948;2023-10-19T02:11:26;17.00;;;13.88;;
64832;SDS011;51290;45.060;38.948;2023-10-19T02:13:54;20.65;;;15.93;;
64832;SDS011;51290;45.060;38.948;2023-10-19T02:16:25;19.52;;;14.30;;
64832;SDS011;51290;45.060;38.948;2023-10-19T02:18:52;19.30;;;14.35;;
64832;SDS011;51290;45.060;38.948;2023-10-19T02:21:18;18.42;;;13.93;;
64832;SDS011;51290;45.060;38.948;2023-10-19T02:23:48;19.13;;;14.25;;
64832;SDS011;51290;45.060;38.948;2023-10-19T02:26:17;17.35;;;13.27;;
64832;SDS011;51290;45.060;38.948;2023-10-19T02:28:48;16.58;;;13.32;;
64832;SDS011;51290;45.060;38.948;2023-10-19T02:31:18;19.58;;;14.23;;
64832;SDS011;51290;45.060;38.948;2023-10-19T02:33:48;19.00;;;14.13;;
64832;SDS011;51290;45.060;38.948;2023-10-19T02:36:23;18.65;;;14.32;;
64832;SDS011;51290;45.060;38.948;2023-10-19T02:38:53;22.90;;;13.13;;
64832;SDS011;51290;45.060;38.948;2023-10-19T02:41:19;18.90;;;14.15;;
64832;SDS011;51290;45.060;38.948;2023-10-19T02:43:46;18.85;;;13.88;;
64832;SDS011;51290;45.060;38.948;2023-10-19T02:46:16;20.73;;;14.65;;
64832;SDS011;51290;45.060;38.948;2023-10-19T02:48:43;24.05;;;14.20;;
64832;SDS011;51290;45.060;38.948;2023-10-19T02:51:11;17.60;;;14.55;;
64832;SDS011;51290;45.060;38.948;2023-10-19T02:53:38;20.35;;;15.13;;
64832;SDS011;51290;45.060;38.948;2023-10-19T02:56:14;20.08;;;15.60;;
64832;SDS011;51290;45.060;38.948;2023-10-19T02:58:49;25.20;;;16.48;;
64832;SDS011;51290;45.060;38.948;2023-10-19T03:01:16;21.80;;;15.43;;
64832;SDS011;51290;45.060;38.948;2023-10-19T03:03:55;23.42;;;16.35;;
64832;SDS011;51290;45.060;38.948;2023-10-19T03:06:26;18.23;;;14.50;;
64832;SDS011;51290;45.060;38.948;2023-10-19T03:08:58;23.73;;;16.45;;
64832;SDS011;51290;45.060;38.948;2023-10-19T03:11:30;29.38;;;17.88;;
64832;SDS011;51290;45.060;38.948;2023-10-19T03:14:00;21.88;;;16.35;;
64832;SDS011;51290;45.060;38.948;2023-10-19T03:16:30;25.63;;;17.70;;
64832;SDS011;51290;45.060;38.948;2023-10-19T03:18:56;25.10;;;17.88;;
64832;SDS011;51290;45.060;38.948;2023-10-19T03:21:22;28.08;;;18.50;;
64832;SDS011;51290;45.060;38.948;2023-10-19T03:26:27;26.92;;;18.85;;
64832;SDS011;51290;45.060;38.948;2023-10-19T03:28:58;24.45;;;18.67;;
64832;SDS011;51290;45.060;38.948;2023-10-19T03:31:32;29.38;;;19.30;;
64832;SDS011;51290;45.060;38.948;2023-10-19T03:34:03;28.65;;;20.15;;
64832;SDS011;51290;45.060;38.948;2023-10-19T03:36:31;25.50;;;19.77;;
64832;SDS011;51290;45.060;38.948;2023-10-19T03:38:58;28.38;;;19.58;;
64832;SDS011;51290;45.060;38.948;2023-10-19T03:41:38;25.95;;;18.98;;
64832;SDS011;51290;45.060;38.948;2023-10-19T03:44:08;25.98;;;19.55;;
64832;SDS011;51290;45.060;38.948;2023-10-19T03:46:51;25.33;;;17.85;;
64832;SDS011;51290;45.060;38.948;2023-10-19T03:49:26;25.27;;;19.45;;
64832;SDS011;51290;45.060;38.948;2023-10-19T03:52:01;35.33;;;19.27;;
64832;SDS011;51290;45.060;38.948;2023-10-19T03:54:48;25.63;;;18.23;;
64832;SDS011;51290;45.060;38.948;2023-10-19T03:57:15;25.63;;;19.10;;
64832;SDS011;51290;45.060;38.948;2023-10-19T03:59:48;29.52;;;21.48;;
64832;SDS011;51290;45.060;38.948;2023-10-19T04:02:15;24.50;;;19.95;;
64832;SDS011;51290;45.060;38.948;2023-10-19T04:04:49;28.80;;;22.23;;
64832;SDS011;51290;45.060;38.948;2023-10-19T04:07:17;28.80;;;21.70;;
64832;SDS011;51290;45.060;38.948;2023-10-19T04:09:50;32.72;;;23.17;;
64832;SDS011;51290;45.060;38.948;2023-10-19T04:12:37;28.52;;;22.30;;
64832;SDS011;51290;45.060;38.948;2023-10-19T04:15:07;30.55;;;21.88;;
64832;SDS011;51290;45.060;38.948;2023-10-19T04:17:43;29.13;;;22.65;;
64832;SDS011;51290;45.060;38.948;2023-10-19T04:20:14;27.55;;;20.33;;
64832;SDS011;51290;45.060;38.948;2023-10-19T04:22:42;30.25;;;20.90;;
64832;SDS011;51290;45.060;38.948;2023-10-19T04:25:09;24.40;;;19.02;;
64832;SDS011;51290;45.060;38.948;2023-10-19T04:27:41;33.95;;;19.52;;
64832;SDS011;51290;45.060;38.948;2023-10-19T04:30:11;25.75;;;19.77;;
64832;SDS011;51290;45.060;38.948;2023-10-19T04:32:42;24.10;;;19.48;;
64832;SDS011;51290;45.060;38.948;2023-10-19T04:35:09;26.63;;;18.70;;
64832;SDS011;51290;45.060;38.948;2023-10-19T04:37:35;29.42;;;20.23;;
64832;SDS011;51290;45.060;38.948;2023-10-19T04:40:01;25.10;;;18.88;;
64832;SDS011;51290;45.060;38.948;2023-10-19T04:42:28;33.55;;;20.27;;
64832;SDS011;51290;45.060;38.948;2023-10-19T04:44:54;47.60;;;25.48;;
64832;SDS011;51290;45.060;38.948;2023-10-19T04:47:21;48.97;;;26.08;;
64832;SDS011;51290;45.060;38.948;2023-10-19T04:49:47;46.40;;;25.95;;
64832;SDS011;51290;45.060;38.948;2023-10-19T04:52:13;46.72;;;27.05;;
64832;SDS011;51290;45.060;38.948;2023-10-19T04:54:39;42.13;;;23.65;;
64832;SDS011;51290;45.060;38.948;2023-10-19T04:57:05;41.10;;;23.63;;
64832;SDS011;51290;45.060;38.948;2023-10-19T04:59:31;31.40;;;20.77;;
64832;SDS011;51290;45.060;38.948;2023-10-19T05:01:59;31.50;;;19.58;;
64832;SDS011;51290;45.060;38.948;2023-10-19T05:04:27;30.60;;;18.23;;
64832;SDS011;51290;45.060;38.948;2023-10-19T05:06:54;24.08;;;17.13;;
64832;SDS011;51290;45.060;38.948;2023-10-19T05:09:21;35.83;;;17.52;;
64832;SDS011;51290;45.060;38.948;2023-10-19T05:11:47;32.45;;;17.15;;
64832;SDS011;51290;45.060;38.948;2023-10-19T05:14:13;21.30;;;16.40;;
64832;SDS011;51290;45.060;38.948;2023-10-19T05:16:39;19.08;;;15.68;;
64832;SDS011;51290;45.060;38.948;2023-10-19T05:19:06;22.95;;;16.80;;
64832;SDS011;51290;45.060;38.948;2023-10-19T05:21:32;22.08;;;17.17;;
64832;SDS011;51290;45.060;38.948;2023-10-19T05:23:59;23.00;;;17.30;;
64832;SDS011;51290;45.060;38.948;2023-10-19T05:26:25;23.88;;;15.85;;
64832;SDS011;51290;45.060;38.948;2023-10-19T05:28:52;21.85;;;16.08;;
64832;SDS011;51290;45.060;38.948;2023-10-19T05:31:19;23.35;;;16.27;;
64832;SDS011;51290;45.060;38.948;2023-10-19T05:33:46;21.63;;;16.15;;
64832;SDS011;51290;45.060;38.948;2023-10-19T05:36:14;25.70;;;16.52;;
64832;SDS011;51290;45.060;38.948;2023-10-19T05:38:40;25.35;;;16.83;;
64832;SDS011;51290;45.060;38.948;2023-10-19T05:41:06;27.88;;;15.68;;
64832;SDS011;51290;45.060;38.948;2023-10-19T05:43:33;19.55;;;15.93;;
64832;SDS011;51290;45.060;38.948;2023-10-19T05:46:00;23.73;;;16.75;;
64832;SDS011;51290;45.060;38.948;2023-10-19T05:48:26;22.42;;;18.05;;
64832;SDS011;51290;45.060;38.948;2023-10-19T05:50:52;21.33;;;15.50;;
64832;SDS011;51290;45.060;38.948;2023-10-19T05:53:19;25.25;;;16.30;;
64832;SDS011;51290;45.060;38.948;2023-10-19T05:55:48;25.20;;;17.05;;
64832;SDS011;51290;45.060;38.948;2023-10-19T05:58:14;21.90;;;14.75;;
64832;SDS011;51290;45.060;38.948;2023-10-19T06:00:41;18.02;;;14.23;;
64832;SDS011;51290;45.060;38.948;2023-10-19T06:03:07;20.63;;;15.57;;
64832;SDS011;51290;45.060;38.948;2023-10-19T06:05:33;20.15;;;14.65;;
64832;SDS011;51290;45.060;38.948;2023-10-19T06:07:59;19.25;;;14.90;;
64832;SDS011;51290;45.060;38.948;2023-10-19T06:10:27;20.58;;;15.00;;
64832;SDS011;51290;45.060;38.948;2023-10-19T06:12:54;25.85;;;15.65;;
64832;SDS011;51290;45.060;38.948;2023-10-19T06:15:20;25.35;;;15.63;;
64832;SDS011;51290;45.060;38.948;2023-10-19T06:17:50;23.38;;;16.30;;
64832;SDS011;51290;45.060;38.948;2023-10-19T06:20:16;21.52;;;15.65;;
64832;SDS011;51290;45.060;38.948;2023-10-19T06:22:47;18.85;;;14.73;;
64832;SDS011;51290;45.060;38.948;2023-10-19T06:25:17;21.10;;;15.27;;
64832;SDS011;51290;45.060;38.948;2023-10-19T06:27:44;22.70;;;14.82;;
64832;SDS011;51290;45.060;38.948;2023-10-19T06:30:11;22.15;;;14.70;;
64832;SDS011;51290;45.060;38.948;2023-10-19T06:32:44;25.00;;;14.63;;
64832;SDS011;51290;45.060;38.948;2023-10-19T06:35:13;20.65;;;15.02;;
64832;SDS011;51290;45.060;38.948;2023-10-19T06:37:39;18.17;;;14.10;;
64832;SDS011;51290;45.060;38.948;2023-10-19T06:40:05;23.90;;;16.35;;
64832;SDS011;51290;45.060;38.948;2023-10-19T06:42:32;27.77;;;15.93;;
64832;SDS011;51290;45.060;38.948;2023-10-19T06:45:00;21.25;;;15.57;;
64832;SDS011;51290;45.060;38.948;2023-10-19T06:47:27;22.92;;;17.45;;
64832;SDS011;51290;45.060;38.948;2023-10-19T06:49:54;26.95;;;16.15;;
64832;SDS011;51290;45.060;38.948;2023-10-19T06:52:21;19.70;;;15.23;;
64832;SDS011;51290;45.060;38.948;2023-10-19T06:54:47;22.73;;;15.30;;
64832;SDS011;51290;45.060;38.948;2023-10-19T06:57:13;16.50;;;13.63;;
64832;SDS011;51290;45.060;38.948;2023-10-19T06:59:39;16.42;;;13.35;;
64832;SDS011;51290;45.060;38.948;2023-10-19T07:02:05;21.45;;;13.43;;
64832;SDS011;51290;45.060;38.948;2023-10-19T07:04:33;15.05;;;12.63;;
64832;SDS011;51290;45.060;38.948;2023-10-19T07:06:59;16.60;;;12.77;;
64832;SDS011;51290;45.060;38.948;2023-10-19T07:09:26;17.85;;;13.45;;
64832;SDS011;51290;45.060;38.948;2023-10-19T07:11:52;18.63;;;12.70;;
64832;SDS011;51290;45.060;38.948;2023-10-19T07:14:22;19.58;;;12.95;;
64832;SDS011;51290;45.060;38.948;2023-10-19T07:16:50;21.65;;;13.05;;
64832;SDS011;51290;45.060;38.948;2023-10-19T07:19:17;15.57;;;11.93;;
64832;SDS011;51290;45.060;38.948;2023-10-19T07:21:44;16.55;;;12.35;;
64832;SDS011;51290;45.060;38.948;2023-10-19T07:24:14;16.55;;;13.18;;
64832;SDS011;51290;45.060;38.948;2023-10-19T07:26:44;17.73;;;12.70;;
64832;SDS011;51290;45.060;38.948;2023-10-19T07:29:19;16.23;;;12.13;;
64832;SDS011;51290;45.060;38.948;2023-10-19T07:31:46;15.38;;;11.27;;
64832;SDS011;51290;45.060;38.948;2023-10-19T07:34:11;23.23;;;12.48;;
64832;SDS011;51290;45.060;38.948;2023-10-19T07:36:41;21.83;;;13.48;;
64832;SDS011;51290;45.060;38.948;2023-10-19T07:39:08;15.60;;;12.35;;
64832;SDS011;51290;45.060;38.948;2023-10-19T07:41:40;17.75;;;12.35;;
64832;SDS011;51290;45.060;38.948;2023-10-19T07:44:06;16.23;;;11.63;;
64832;SDS011;51290;45.060;38.948;2023-10-19T07:46:32;11.82;;;10.60;;
64832;SDS011;51290;45.060;38.948;2023-10-19T07:48:58;14.15;;;10.20;;
64832;SDS011;51290;45.060;38.948;2023-10-19T07:51:26;11.93;;;9.82;;
64832;SDS011;51290;45.060;38.948;2023-10-19T07:53:52;16.10;;;10.55;;
64832;SDS011;51290;45.060;38.948;2023-10-19T07:56:19;15.95;;;11.23;;
64832;SDS011;51290;45.060;38.948;2023-10-19T07:58:45;21.08;;;13.15;;
64832;SDS011;51290;45.060;38.948;2023-10-19T08:01:11;13.80;;;10.45;;
64832;SDS011;51290;45.060;38.948;2023-10-19T08:03:37;19.83;;;10.65;;
64832;SDS011;51290;45.060;38.948;2023-10-19T08:06:03;13.07;;;10.20;;
64832;SDS011;51290;45.060;38.948;2023-10-19T08:08:30;17.48;;;9.85;;
64832;SDS011;51290;45.060;38.948;2023-10-19T08:10:59;12.82;;;10.02;;
64832;SDS011;51290;45.060;38.948;2023-10-19T08:13:26;13.18;;;10.60;;
64832;SDS011;51290;45.060;38.948;2023-10-19T08:15:52;15.77;;;10.20;;
64832;SDS011;51290;45.060;38.948;2023-10-19T08:18:18;13.73;;;9.68;;
64832;SDS011;51290;45.060;38.948;2023-10-19T08:20:45;15.27;;;10.60;;
64832;SDS011;51290;45.060;38.948;2023-10-19T08:23:11;12.45;;;9.93;;
64832;SDS011;51290;45.060;38.948;2023-10-19T08:25:43;14.23;;;9.10;;
64832;SDS011;51290;45.060;38.948;2023-10-19T08:28:09;15.88;;;10.05;;
64832;SDS011;51290;45.060;38.948;2023-10-19T08:30:36;13.45;;;10.43;;
64832;SDS011;51290;45.060;38.948;2023-10-19T08:33:02;12.18;;;9.18;;
64832;SDS011;51290;45.060;38.948;2023-10-19T08:35:29;12.80;;;9.77;;
64832;SDS011;51290;45.060;38.948;2023-10-19T08:37:56;11.68;;;9.70;;
64832;SDS011;51290;45.060;38.948;2023-10-19T08:40:26;10.68;;;9.20;;
64832;SDS011;51290;45.060;38.948;2023-10-19T08:42:53;12.02;;;9.55;;
64832;SDS011;51290;45.060;38.948;2023-10-19T08:45:20;17.45;;;9.63;;
64832;SDS011;51290;45.060;38.948;2023-10-19T08:47:53;16.90;;;9.82;;
64832;SDS011;51290;45.060;38.948;2023-10-19T08:50:24;15.82;;;10.65;;
64832;SDS011;51290;45.060;38.948;2023-10-19T08:52:55;17.88;;;9.63;;
64832;SDS011;51290;45.060;38.948;2023-10-19T08:55:22;14.88;;;9.70;;
64832;SDS011;51290;45.060;38.948;2023-10-19T08:57:49;14.20;;;9.20;;
64832;SDS011;51290;45.060;38.948;2023-10-19T09:00:17;10.80;;;8.18;;
64832;SDS011;51290;45.060;38.948;2023-10-19T09:02:47;22.67;;;8.88;;
64832;SDS011;51290;45.060;38.948;2023-10-19T09:05:13;14.70;;;8.68;;
64832;SDS011;51290;45.060;38.948;2023-10-19T09:07:54;14.35;;;8.82;;
64832;SDS011;51290;45.060;38.948;2023-10-19T09:10:24;10.48;;;7.97;;
64832;SDS011;51290;45.060;38.948;2023-10-19T09:13:02;15.00;;;8.07;;
64832;SDS011;51290;45.060;38.948;2023-10-19T09:15:30;16.55;;;9.40;;
64832;SDS011;51290;45.060;38.948;2023-10-19T09:18:11;11.13;;;8.52;;
64832;SDS011;51290;45.060;38.948;2023-10-19T09:20:41;16.70;;;8.75;;
64832;SDS011;51290;45.060;38.948;2023-10-19T09:25:56;13.43;;;8.35;;
64832;SDS011;51290;45.060;38.948;2023-10-19T09:28:22;8.82;;;6.80;;
64832;SDS011;51290;45.060;38.948;2023-10-19T09:30:50;8.98;;;6.50;;
64832;SDS011;51290;45.060;38.948;2023-10-19T09:33:16;11.85;;;8.75;;
64832;SDS011;51290;45.060;38.948;2023-10-19T09:35:46;14.25;;;9.25;;
64832;SDS011;51290;45.060;38.948;2023-10-19T09:38:17;15.88;;;9.35;;
64832;SDS011;51290;45.060;38.948;2023-10-19T09:40:53;10.32;;;8.25;;
64832;SDS011;51290;45.060;38.948;2023-10-19T09:43:30;10.55;;;8.48;;
64832;SDS011;51290;45.060;38.948;2023-10-19T09:46:01;11.68;;;8.52;;
64832;SDS011;51290;45.060;38.948;2023-10-19T09:48:39;13.07;;;8.45;;
64832;SDS011;51290;45.060;38.948;2023-10-19T09:51:07;10.93;;;8.40;;
64832;SDS011;51290;45.060;38.948;2023-10-19T09:53:34;9.20;;;7.18;;
64832;SDS011;51290;45.060;38.948;2023-10-19T09:56:03;9.80;;;7.40;;
64832;SDS011;51290;45.060;38.948;2023-10-19T09:58:36;9.25;;;7.05;;
64832;SDS011;51290;45.060;38.948;2023-10-19T10:01:07;11.10;;;8.85;;
64832;SDS011;51290;45.060;38.948;2023-10-19T10:03:50;9.75;;;7.90;;
64832;SDS011;51290;45.060;38.948;2023-10-19T10:06:17;12.75;;;8.52;;
64832;SDS011;51290;45.060;38.948;2023-10-19T10:08:56;13.93;;;8.27;;
64832;SDS011;51290;45.060;38.948;2023-10-19T10:11:26;12.13;;;7.72;;
64832;SDS011;51290;45.060;38.948;2023-10-19T10:13:54;11.40;;;8.93;;
64832;SDS011;51290;45.060;38.948;2023-10-19T10:16:34;9.68;;;8.05;;
64832;SDS011;51290;45.060;38.948;2023-10-19T10:19:00;13.48;;;8.98;;
64832;SDS011;51290;45.060;38.948;2023-10-19T10:21:27;10.20;;;8.07;;
64832;SDS011;51290;45.060;38.948;2023-10-19T10:23:55;17.42;;;8.75;;
64832;SDS011;51290;45.060;38.948;2023-10-19T10:26:26;9.85;;;7.88;;
64832;SDS011;51290;45.060;38.948;2023-10-19T10:29:08;13.13;;;7.60;;
64832;SDS011;51290;45.060;38.948;2023-10-19T10:31:43;10.45;;;8.10;;
64832;SDS011;51290;45.060;38.948;2023-10-19T10:34:12;14.75;;;8.73;;
64832;SDS011;51290;45.060;38.948;2023-10-19T10:39:33;12.17;;;7.80;;
64832;SDS011;51290;45.060;38.948;2023-10-19T10:42:06;10.07;;;7.63;;
64832;SDS011;51290;45.060;38.948;2023-10-19T10:47:07;11.77;;;8.50;;
64832;SDS011;51290;45.060;38.948;2023-10-19T10:49:45;8.75;;;7.20;;
64832;SDS011;51290;45.060;38.948;2023-10-19T10:52:14;13.32;;;8.57;;
64832;SDS011;51290;45.060;38.948;2023-10-19T10:55:08;10.40;;;7.68;;
64832;SDS011;51290;45.060;38.948;2023-10-19T10:57:42;13.18;;;8.00;;
64832;SDS011;51290;45.060;38.948;2023-10-19T11:00:09;14.25;;;8.48;;
64832;SDS011;51290;45.060;38.948;2023-10-19T11:02:43;13.93;;;9.05;;
64832;SDS011;51290;45.060;38.948;2023-10-19T11:05:24;14.00;;;9.07;;
64832;SDS011;51290;45.060;38.948;2023-10-19T11:10:49;12.75;;;8.85;;
64832;SDS011;51290;45.060;38.948;2023-10-19T11:13:16;13.02;;;8.68;;
64832;SDS011;51290;45.060;38.948;2023-10-19T11:15:50;11.80;;;8.48;;
64832;SDS011;51290;45.060;38.948;2023-10-19T11:18:32;15.23;;;9.50;;
64832;SDS011;51290;45.060;38.948;2023-10-19T11:21:00;19.30;;;10.48;;
64832;SDS011;51290;45.060;38.948;2023-10-19T11:23:36;12.95;;;8.55;;
64832;SDS011;51290;45.060;38.948;2023-10-19T11:26:19;17.40;;;10.18;;
64832;SDS011;51290;45.060;38.948;2023-10-19T11:28:46;11.45;;;9.25;;
64832;SDS011;51290;45.060;38.948;2023-10-19T11:31:16;22.10;;;8.82;;
64832;SDS011;51290;45.060;38.948;2023-10-19T11:33:50;11.10;;;8.43;;
64832;SDS011;51290;45.060;38.948;2023-10-19T11:36:18;12.27;;;9.02;;
64832;SDS011;51290;45.060;38.948;2023-10-19T11:38:46;12.30;;;9.38;;
64832;SDS011;51290;45.060;38.948;2023-10-19T11:41:14;12.00;;;8.90;;
64832;SDS011;51290;45.060;38.948;2023-10-19T11:43:41;13.93;;;10.30;;
64832;SDS011;51290;45.060;38.948;2023-10-19T11:46:09;12.75;;;8.40;;
64832;SDS011;51290;45.060;38.948;2023-10-19T11:48:50;15.05;;;10.23;;
64832;SDS011;51290;45.060;38.948;2023-10-19T11:51:16;13.70;;;9.57;;
64832;SDS011;51290;45.060;38.948;2023-10-19T11:53:43;11.18;;;8.40;;
64832;SDS011;51290;45.060;38.948;2023-10-19T11:56:10;11.88;;;8.95;;
64832;SDS011;51290;45.060;38.948;2023-10-19T11:58:38;17.08;;;8.88;;
64832;SDS011;51290;45.060;38.948;2023-10-19T12:01:08;11.75;;;8.48;;
64832;SDS011;51290;45.060;38.948;2023-10-19T12:03:37;11.30;;;8.95;;
64832;SDS011;51290;45.060;38.948;2023-10-19T12:06:08;11.10;;;8.32;;
64832;SDS011;51290;45.060;38.948;2023-10-19T12:08:36;14.00;;;8.68;;
64832;SDS011;51290;45.060;38.948;2023-10-19T12:11:03;15.23;;;9.77;;
64832;SDS011;51290;45.060;38.948;2023-10-19T12:13:35;14.48;;;8.77;;
64832;SDS011;51290;45.060;38.948;2023-10-19T12:16:03;12.07;;;8.80;;
64832;SDS011;51290;45.060;38.948;2023-10-19T12:18:30;12.45;;;9.07;;
64832;SDS011;51290;45.060;38.948;2023-10-19T12:20:56;12.63;;;8.25;;
64832;SDS011;51290;45.060;38.948;2023-10-19T12:23:26;11.70;;;9.07;;
64832;SDS011;51290;45.060;38.948;2023-10-19T12:25:52;12.38;;;8.75;;
64832;SDS011;51290;45.060;38.948;2023-10-19T12:28:18;13.40;;;10.43;;
64832;SDS011;51290;45.060;38.948;2023-10-19T12:30:44;12.80;;;8.85;;
64832;SDS011;51290;45.060;38.948;2023-10-19T12:33:10;17.58;;;10.00;;
64832;SDS011;51290;45.060;38.948;2023-10-19T12:35:37;12.40;;;9.30;;
64832;SDS011;51290;45.060;38.948;2023-10-19T12:38:29;14.02;;;8.23;;
64832;SDS011;51290;45.060;38.948;2023-10-19T12:40:55;15.93;;;8.85;;
64832;SDS011;51290;45.060;38.948;2023-10-19T12:43:21;14.38;;;10.50;;
64832;SDS011;51290;45.060;38.948;2023-10-19T12:45:48;14.07;;;8.70;;
64832;SDS011;51290;45.060;38.948;2023-10-19T12:48:23;15.77;;;8.48;;
64832;SDS011;51290;45.060;38.948;2023-10-19T12:50:55;13.05;;;8.35;;
64832;SDS011;51290;45.060;38.948;2023-10-19T12:53:21;13.63;;;8.27;;
64832;SDS011;51290;45.060;38.948;2023-10-19T12:55:50;12.60;;;8.10;;
64832;SDS011;51290;45.060;38.948;2023-10-19T12:58:17;14.30;;;8.48;;
64832;SDS011;51290;45.060;38.948;2023-10-19T13:00:47;11.65;;;8.10;;
64832;SDS011;51290;45.060;38.948;2023-10-19T13:03:14;10.05;;;7.70;;
64832;SDS011;51290;45.060;38.948;2023-10-19T13:05:42;12.90;;;7.95;;
64832;SDS011;51290;45.060;38.948;2023-10-19T13:08:13;13.07;;;7.82;;
64832;SDS011;51290;45.060;38.948;2023-10-19T13:10:40;13.80;;;7.22;;
64832;SDS011;51290;45.060;38.948;2023-10-19T13:13:12;16.88;;;7.90;;
64832;SDS011;51290;45.060;38.948;2023-10-19T13:15:41;10.65;;;7.40;;
64832;SDS011;51290;45.060;38.948;2023-10-19T13:18:11;9.50;;;6.60;;
64832;SDS011;51290;45.060;38.948;2023-10-19T13:20:53;9.38;;;6.72;;
64832;SDS011;51290;45.060;38.948;2023-10-19T13:23:19;19.63;;;10.27;;
64832;SDS011;51290;45.060;38.948;2023-10-19T13:25:49;15.00;;;10.13;;
64832;SDS011;51290;45.060;38.948;2023-10-19T13:28:18;13.70;;;8.73;;
64832;SDS011;51290;45.060;38.948;2023-10-19T13:30:50;13.55;;;8.95;;
64832;SDS011;51290;45.060;38.948;2023-10-19T13:33:18;10.32;;;8.15;;
64832;SDS011;51290;45.060;38.948;2023-10-19T13:35:46;14.95;;;9.20;;
64832;SDS011;51290;45.060;38.948;2023-10-19T13:38:13;15.40;;;8.48;;
64832;SDS011;51290;45.060;38.948;2023-10-19T13:40:41;15.13;;;10.82;;
64832;SDS011;51290;45.060;38.948;2023-10-19T13:43:08;12.65;;;8.25;;
64832;SDS011;51290;45.060;38.948;2023-10-19T13:45:39;13.98;;;7.15;;
64832;SDS011;51290;45.060;38.948;2023-10-19T13:48:07;15.52;;;8.50;;
64832;SDS011;51290;45.060;38.948;2023-10-19T13:50:35;14.80;;;7.78;;
64832;SDS011;51290;45.060;38.948;2023-10-19T13:53:06;10.50;;;7.45;;
64832;SDS011;51290;45.060;38.948;2023-10-19T13:55:31;12.63;;;8.40;;
64832;SDS011;51290;45.060;38.948;2023-10-19T13:57:58;11.55;;;8.45;;
64832;SDS011;51290;45.060;38.948;2023-10-19T14:00:24;13.73;;;8.32;;
64832;SDS011;51290;45.060;38.948;2023-10-19T14:05:41;15.63;;;8.77;;
64832;SDS011;51290;45.060;38.948;2023-10-19T14:08:08;12.02;;;8.02;;
64832;SDS011;51290;45.060;38.948;2023-10-19T14:10:35;16.00;;;7.70;;
64832;SDS011;51290;45.060;38.948;2023-10-19T14:13:01;8.32;;;6.15;;
64832;SDS011;51290;45.060;38.948;2023-10-19T14:15:28;14.65;;;7.25;;
64832;SDS011;51290;45.060;38.948;2023-10-19T14:17:55;11.80;;;6.68;;
64832;SDS011;51290;45.060;38.948;2023-10-19T14:20:27;13.15;;;7.07;;
64832;SDS011;51290;45.060;38.948;2023-10-19T14:22:55;13.35;;;10.10;;
64832;SDS011;51290;45.060;38.948;2023-10-19T14:25:21;12.95;;;8.07;;
64832;SDS011;51290;45.060;38.948;2023-10-19T14:27:49;11.27;;;8.32;;
64832;SDS011;51290;45.060;38.948;2023-10-19T14:30:21;14.82;;;7.95;;
64832;SDS011;51290;45.060;38.948;2023-10-19T14:32:48;23.33;;;7.40;;
64832;SDS011;51290;45.060;38.948;2023-10-19T14:35:15;10.82;;;7.88;;
64832;SDS011;51290;45.060;38.948;2023-10-19T14:37:43;12.27;;;8.45;;
64832;SDS011;51290;45.060;38.948;2023-10-19T14:40:11;13.65;;;8.52;;
64832;SDS011;51290;45.060;38.948;2023-10-19T14:42:40;12.85;;;7.97;;
64832;SDS011;51290;45.060;38.948;2023-10-19T14:45:10;15.85;;;9.18;;
64832;SDS011;51290;45.060;38.948;2023-10-19T14:47:42;15.20;;;9.13;;